createdAt,value
2018-05-25T00:01:18.436Z,16.50
2018-05-25T00:03:45.893Z,16.50
2018-05-25T00:06:13.345Z,16.50
2018-05-25T00:08:40.812Z,16.50
2018-05-25T00:11:08.288Z,16.50
2018-05-25T00:13:35.760Z,16.40
2018-05-25T00:16:03.216Z,16.40
2018-05-25T00:18:30.680Z,16.40
2018-05-25T00:20:58.132Z,16.30
2018-05-25T00:23:26.366Z,16.30
2018-05-25T00:25:53.826Z,16.30
2018-05-25T00:28:21.296Z,16.30
2018-05-25T00:30:48.752Z,16.30
2018-05-25T00:33:16.210Z,16.20
2018-05-25T00:35:43.680Z,16.20
2018-05-25T00:38:11.141Z,16.20
2018-05-25T00:40:39.468Z,16.10
2018-05-25T00:43:06.933Z,16.10
2018-05-25T00:45:34.480Z,16.10
2018-05-25T00:48:01.993Z,16.10
2018-05-25T00:50:29.577Z,16.20
2018-05-25T00:52:57.017Z,16.10
2018-05-25T00:55:36.429Z,16.20
2018-05-25T00:58:04.674Z,16.20
2018-05-25T01:00:32.149Z,16.20
2018-05-25T01:02:59.600Z,16.20
2018-05-25T01:05:27.077Z,16.30
2018-05-25T01:07:54.544Z,16.40
2018-05-25T01:10:22.004Z,16.30
2018-05-25T01:12:49.485Z,16.30
2018-05-25T01:15:16.960Z,16.30
2018-05-25T01:17:44.428Z,16.40
2018-05-25T01:20:11.904Z,16.30
2018-05-25T01:22:39.467Z,16.40
2018-05-25T01:25:06.924Z,16.40
2018-05-25T01:27:34.396Z,16.40
2018-05-25T01:30:01.877Z,16.40
2018-05-25T01:32:29.349Z,16.40
2018-05-25T01:34:56.812Z,16.40
2018-05-25T01:37:24.273Z,16.40
2018-05-25T01:39:51.744Z,16.40
2018-05-25T01:42:19.197Z,16.50
2018-05-25T01:44:46.674Z,16.50
2018-05-25T01:47:14.131Z,16.50
2018-05-25T01:49:41.591Z,16.50
2018-05-25T01:52:09.109Z,16.60
2018-05-25T01:54:36.589Z,16.60
2018-05-25T01:57:04.040Z,16.60
2018-05-25T01:59:31.520Z,16.60
2018-05-25T02:01:59.088Z,16.50
2018-05-25T02:04:26.566Z,16.60
2018-05-25T02:06:54.197Z,16.60
2018-05-25T02:09:22.423Z,16.60
2018-05-25T02:11:49.889Z,16.50
2018-05-25T02:14:17.346Z,16.60
2018-05-25T02:16:44.816Z,16.60
2018-05-25T02:19:12.268Z,16.60
2018-05-25T02:21:39.739Z,16.50
2018-05-25T02:24:07.245Z,16.50
2018-05-25T02:26:34.692Z,16.40
2018-05-25T02:29:02.242Z,16.40
2018-05-25T02:31:29.692Z,16.40
2018-05-25T02:33:57.933Z,16.40
2018-05-25T02:36:25.380Z,16.40
2018-05-25T02:38:52.880Z,16.30
2018-05-25T02:41:20.360Z,16.30
2018-05-25T02:43:47.882Z,16.30
2018-05-25T02:46:16.101Z,16.20
2018-05-25T02:48:43.788Z,16.20
2018-05-25T02:51:11.257Z,16.20
2018-05-25T02:53:38.720Z,16.20
2018-05-25T02:56:06.184Z,16.20
2018-05-25T02:58:33.668Z,16.20
2018-05-25T03:01:01.141Z,16.10
2018-05-25T03:03:28.596Z,16.10
2018-05-25T03:05:56.056Z,16.10
2018-05-25T03:08:23.536Z,16.00
2018-05-25T03:10:50.993Z,16.00
2018-05-25T03:13:18.460Z,16.00
2018-05-25T03:15:45.912Z,15.90
2018-05-25T03:18:13.384Z,15.90
2018-05-25T03:20:40.851Z,15.90
2018-05-25T03:23:08.308Z,16.00
2018-05-25T03:25:35.764Z,16.00
2018-05-25T03:28:03.988Z,16.00
2018-05-25T03:30:31.484Z,16.00
2018-05-25T03:32:58.953Z,16.00
2018-05-25T03:35:26.532Z,16.00
2018-05-25T03:37:53.997Z,16.00
2018-05-25T03:40:21.460Z,16.00
2018-05-25T03:42:48.936Z,16.00
2018-05-25T03:45:16.398Z,16.10
2018-05-25T03:47:43.881Z,16.10
2018-05-25T03:50:11.340Z,16.10
2018-05-25T03:52:38.809Z,16.10
2018-05-25T03:55:06.289Z,16.00
2018-05-25T03:57:33.752Z,16.00
2018-05-25T04:00:13.108Z,16.00
2018-05-25T04:02:40.580Z,16.00
2018-05-25T04:05:08.032Z,16.00
2018-05-25T04:07:35.517Z,16.00
2018-05-25T04:10:03.089Z,16.00
2018-05-25T04:12:30.540Z,15.90
2018-05-25T04:14:58.028Z,15.90
2018-05-25T04:17:25.485Z,16.00
2018-05-25T04:19:53.032Z,16.00
2018-05-25T04:22:20.541Z,16.00
2018-05-25T04:24:48.012Z,16.10
2018-05-25T04:27:15.577Z,16.10
2018-05-25T04:29:43.036Z,16.10
2018-05-25T04:32:10.518Z,16.20
2018-05-25T04:35:24.381Z,16.30
2018-05-25T04:37:51.961Z,16.40
2018-05-25T04:40:19.420Z,16.50
2018-05-25T04:42:46.992Z,16.60
2018-05-25T04:45:14.473Z,16.70
2018-05-25T04:47:41.948Z,16.70
2018-05-25T04:50:09.408Z,16.70
2018-05-25T04:52:36.864Z,16.80
2018-05-25T04:55:04.333Z,16.90
2018-05-25T04:57:31.785Z,17.10
2018-05-25T04:59:59.253Z,17.10
2018-05-25T05:02:26.708Z,17.20
2018-05-25T05:04:54.203Z,17.30
2018-05-25T05:07:21.701Z,17.40
2018-05-25T05:09:49.166Z,17.50
2018-05-25T05:12:16.628Z,17.60
2018-05-25T05:14:44.112Z,17.60
2018-05-25T05:17:11.685Z,17.60
2018-05-25T05:19:39.149Z,17.60
2018-05-25T05:22:06.616Z,17.50
2018-05-25T05:24:34.084Z,17.60
2018-05-25T05:27:01.559Z,17.60
2018-05-25T05:29:29.013Z,17.70
2018-05-25T05:31:56.476Z,17.70
2018-05-25T05:34:23.944Z,17.80
2018-05-25T05:36:51.404Z,17.80
2018-05-25T05:39:18.872Z,17.80
2018-05-25T05:41:46.376Z,17.80
2018-05-25T05:44:13.842Z,17.80
2018-05-25T05:46:41.316Z,17.70
2018-05-25T05:49:08.897Z,17.70
2018-05-25T05:51:36.364Z,17.70
2018-05-25T05:54:03.926Z,17.70
2018-05-25T05:56:31.392Z,17.70
2018-05-25T05:58:58.916Z,17.80
2018-05-25T06:01:26.384Z,17.80
2018-05-25T06:03:54.597Z,17.90
2018-05-25T06:06:22.089Z,17.80
2018-05-25T06:08:49.566Z,17.90
2018-05-25T06:11:17.040Z,17.90
2018-05-25T06:13:44.495Z,17.90
2018-05-25T06:16:12.002Z,18.00
2018-05-25T06:18:39.484Z,18.10
2018-05-25T06:21:06.935Z,18.20
2018-05-25T06:23:34.402Z,18.20
2018-05-25T06:26:01.956Z,18.20
2018-05-25T06:28:29.420Z,18.20
2018-05-25T06:30:56.897Z,18.30
2018-05-25T06:33:24.370Z,18.30
2018-05-25T06:35:51.824Z,18.30
2018-05-25T06:38:19.280Z,18.30
2018-05-25T06:40:46.756Z,18.40
2018-05-25T06:43:14.305Z,18.40
2018-05-25T06:45:41.701Z,18.40
2018-05-25T06:48:09.164Z,18.30
2018-05-25T06:50:36.657Z,18.30
2018-05-25T06:53:04.089Z,18.40
2018-05-25T06:55:31.568Z,18.50
2018-05-25T06:57:59.086Z,18.50
2018-05-25T07:00:26.540Z,18.50
2018-05-25T07:02:54.108Z,18.50
2018-05-25T07:05:21.564Z,18.40
2018-05-25T07:07:49.040Z,18.60
2018-05-25T07:10:16.501Z,18.70
2018-05-25T07:12:43.976Z,19.00
2018-05-25T07:15:11.456Z,19.10
2018-05-25T07:17:38.936Z,19.20
2018-05-25T07:20:06.388Z,19.30
2018-05-25T07:22:33.840Z,19.30
2018-05-25T07:25:01.345Z,19.30
2018-05-25T07:27:28.805Z,19.40
2018-05-25T07:29:56.272Z,19.60
2018-05-25T07:32:23.732Z,19.60
2018-05-25T07:34:51.205Z,19.70
2018-05-25T07:37:18.660Z,19.90
2018-05-25T07:39:46.164Z,20.00
2018-05-25T07:42:13.612Z,20.10
2018-05-25T07:44:41.096Z,20.20
2018-05-25T07:47:08.566Z,20.40
2018-05-25T07:49:36.020Z,20.60
2018-05-25T07:52:03.509Z,20.70
2018-05-25T07:54:30.967Z,20.80
2018-05-25T07:56:58.432Z,20.90
2018-05-25T07:59:25.894Z,21.10
2018-05-25T08:01:53.364Z,21.20
2018-05-25T08:04:20.862Z,21.20
2018-05-25T08:06:48.353Z,21.30
2018-05-25T08:09:15.815Z,21.30
2018-05-25T08:11:43.364Z,21.60
2018-05-25T08:14:10.973Z,21.80
2018-05-25T08:16:38.485Z,22.00
2018-05-25T08:19:05.953Z,22.20
2018-05-25T08:21:33.422Z,22.40
2018-05-25T08:24:00.880Z,22.50
2018-05-25T08:26:28.585Z,22.70
2018-05-25T08:28:56.054Z,23.30
2018-05-25T08:31:24.621Z,23.90
2018-05-25T08:33:52.129Z,24.40
2018-05-25T08:36:19.717Z,24.80
2018-05-25T08:38:47.221Z,25.40
2018-05-25T08:41:14.689Z,25.70
2018-05-25T08:43:42.912Z,26.60
2018-05-25T08:46:10.380Z,26.50
2018-05-25T08:48:37.869Z,26.70
2018-05-25T08:51:05.443Z,26.60
2018-05-25T08:53:32.921Z,26.30
2018-05-25T08:56:00.372Z,25.80
2018-05-25T08:58:27.850Z,25.30
2018-05-25T09:00:55.325Z,25.10
2018-05-25T09:03:22.800Z,25.10
2018-05-25T09:05:50.266Z,24.70
2018-05-25T09:08:17.728Z,24.10
2018-05-25T09:10:45.188Z,24.10
2018-05-25T09:13:12.677Z,24.10
2018-05-25T09:15:40.205Z,24.40
2018-05-25T09:18:07.814Z,25.10
2018-05-25T09:20:35.417Z,25.50
2018-05-25T09:23:02.865Z,25.50
2018-05-25T09:25:30.436Z,26.20
2018-05-25T09:27:57.895Z,26.10
2018-05-25T09:30:25.369Z,26.10
2018-05-25T09:32:52.840Z,26.30
2018-05-25T09:35:20.317Z,26.30
2018-05-25T09:37:47.789Z,27.10
2018-05-25T09:40:15.242Z,27.00
2018-05-25T09:42:42.708Z,25.90
2018-05-25T09:45:10.256Z,25.60
2018-05-25T09:47:37.728Z,25.30
2018-05-25T09:50:05.185Z,25.40
2018-05-25T09:52:32.663Z,26.20
2018-05-25T09:55:00.120Z,27.00
2018-05-25T09:57:28.336Z,27.90
2018-05-25T09:59:55.811Z,27.80
2018-05-25T10:02:23.260Z,28.60
2018-05-25T10:04:50.748Z,29.00
2018-05-25T10:07:18.204Z,29.30
2018-05-25T10:09:45.712Z,28.80
2018-05-25T10:12:13.176Z,28.60
2018-05-25T10:14:40.653Z,28.20
2018-05-25T10:17:08.104Z,27.40
2018-05-25T10:19:35.585Z,28.20
2018-05-25T10:22:03.040Z,28.90
2018-05-25T10:24:30.516Z,28.70
2018-05-25T10:26:57.976Z,28.70
2018-05-25T10:29:25.463Z,28.60
2018-05-25T10:31:53.029Z,28.80
2018-05-25T10:34:20.473Z,28.70
2018-05-25T10:36:48.084Z,28.10
2018-05-25T10:39:15.564Z,28.50
2018-05-25T10:41:43.128Z,28.00
2018-05-25T10:44:10.614Z,27.50
2018-05-25T10:46:38.845Z,27.60
2018-05-25T10:49:06.356Z,27.50
2018-05-25T10:51:33.808Z,27.80
2018-05-25T10:54:01.295Z,28.60
2018-05-25T10:56:28.749Z,29.30
2018-05-25T10:58:56.204Z,29.70
2018-05-25T11:01:23.675Z,29.70
2018-05-25T11:03:51.188Z,29.80
2018-05-25T11:06:18.653Z,30.50
2018-05-25T11:08:46.107Z,29.80
2018-05-25T11:11:13.568Z,30.40
2018-05-25T11:13:41.056Z,31.10
2018-05-25T11:16:08.525Z,30.80
2018-05-25T11:18:35.973Z,30.20
2018-05-25T11:21:03.487Z,29.50
2018-05-25T11:23:30.904Z,28.90
2018-05-25T11:25:58.353Z,28.90
2018-05-25T11:28:26.572Z,28.70
2018-05-25T11:30:54.028Z,28.70
2018-05-25T11:33:21.492Z,28.60
2018-05-25T11:35:48.940Z,29.60
2018-05-25T11:38:17.168Z,30.70
2018-05-25T11:40:44.664Z,30.70
2018-05-25T11:43:12.112Z,30.70
2018-05-25T11:45:39.573Z,31.00
2018-05-25T11:48:07.029Z,30.70
2018-05-25T11:50:34.500Z,30.50
2018-05-25T11:53:02.014Z,31.00
2018-05-25T11:55:29.457Z,31.60
2018-05-25T11:57:57.004Z,31.70
2018-05-25T12:00:25.212Z,31.90
2018-05-25T12:02:52.676Z,31.90
2018-05-25T12:05:20.134Z,32.10
2018-05-25T12:07:47.592Z,31.20
2018-05-25T12:10:15.109Z,30.30
2018-05-25T12:12:42.584Z,30.70
2018-05-25T12:15:10.050Z,30.80
2018-05-25T12:17:37.517Z,31.40
2018-05-25T12:20:04.985Z,31.20
2018-05-25T12:22:32.531Z,31.30
2018-05-25T12:24:59.986Z,31.00
2018-05-25T12:27:27.504Z,30.70
2018-05-25T12:29:54.977Z,30.70
2018-05-25T12:32:22.445Z,31.10
2018-05-25T12:34:49.912Z,31.40
2018-05-25T12:37:17.356Z,31.60
2018-05-25T12:39:44.828Z,32.20
2018-05-25T12:42:12.283Z,32.20
2018-05-25T12:44:51.668Z,32.00
2018-05-25T12:47:19.117Z,31.50
2018-05-25T12:49:46.580Z,31.50
2018-05-25T12:52:14.089Z,31.50
2018-05-25T12:54:41.604Z,31.00
2018-05-25T12:57:09.903Z,31.20
2018-05-25T12:59:37.367Z,31.20
2018-05-25T13:02:05.261Z,30.90
2018-05-25T13:04:32.718Z,30.50
2018-05-25T13:07:00.921Z,30.00
2018-05-25T13:09:28.392Z,30.00
2018-05-25T13:11:55.888Z,30.50
2018-05-25T13:14:23.459Z,30.90
2018-05-25T13:16:50.940Z,31.20
2018-05-25T13:19:18.412Z,31.70
2018-05-25T13:21:45.995Z,32.30
2018-05-25T13:24:13.425Z,32.50
2018-05-25T13:26:40.887Z,32.60
2018-05-25T13:29:08.380Z,32.80
2018-05-25T13:31:35.844Z,33.00
2018-05-25T13:34:03.305Z,33.20
2018-05-25T13:36:30.789Z,32.90
2018-05-25T13:38:58.271Z,32.80
2018-05-25T13:41:25.724Z,32.90
2018-05-25T13:43:53.203Z,33.10
2018-05-25T13:46:20.652Z,33.40
2018-05-25T13:48:48.116Z,33.80
2018-05-25T13:51:15.568Z,33.80
2018-05-25T13:53:43.082Z,33.60
2018-05-25T13:56:10.532Z,33.60
2018-05-25T13:58:37.997Z,33.50
2018-05-25T14:01:05.474Z,33.50
2018-05-25T14:03:32.975Z,33.60
2018-05-25T14:06:00.475Z,33.60
2018-05-25T14:08:27.896Z,33.10
2018-05-25T14:10:55.370Z,32.50
2018-05-25T14:13:22.816Z,32.60
2018-05-25T14:15:50.312Z,33.00
2018-05-25T14:18:17.768Z,33.00
2018-05-25T14:20:45.249Z,33.00
2018-05-25T14:23:12.817Z,33.30
2018-05-25T14:25:40.265Z,33.20
2018-05-25T14:28:07.767Z,33.60
2018-05-25T14:30:35.224Z,32.80
2018-05-25T14:33:02.682Z,32.60
2018-05-25T14:35:30.144Z,32.80
2018-05-25T14:37:57.600Z,32.80
2018-05-25T14:40:25.120Z,32.10
2018-05-25T14:42:52.601Z,31.70
2018-05-25T14:45:20.070Z,31.60
2018-05-25T14:47:47.589Z,31.10
2018-05-25T14:50:15.056Z,30.60
2018-05-25T14:52:42.619Z,30.00
2018-05-25T14:55:10.040Z,29.60
2018-05-25T14:57:37.600Z,29.30
2018-05-25T15:00:05.079Z,28.90
2018-05-25T15:02:32.513Z,29.40
2018-05-25T15:05:00.009Z,29.80
2018-05-25T15:07:27.478Z,29.50
2018-05-25T15:09:54.949Z,29.70
2018-05-25T15:12:22.484Z,29.90
2018-05-25T15:14:49.997Z,29.60
2018-05-25T15:17:17.468Z,29.10
2018-05-25T15:19:45.037Z,28.70
2018-05-25T15:22:12.491Z,28.70
2018-05-25T15:24:39.948Z,28.60
2018-05-25T15:27:07.395Z,28.40
2018-05-25T15:29:34.886Z,28.20
2018-05-25T15:32:03.166Z,28.00
2018-05-25T15:34:30.604Z,27.90
2018-05-25T15:36:58.864Z,27.60
2018-05-25T15:39:26.316Z,27.60
2018-05-25T15:41:53.777Z,27.50
2018-05-25T15:44:21.268Z,27.40
2018-05-25T15:46:48.732Z,27.30
2018-05-25T15:49:16.211Z,27.10
2018-05-25T15:51:43.782Z,27.10
2018-05-25T15:54:11.257Z,27.00
2018-05-25T15:56:38.716Z,26.90
2018-05-25T15:59:06.201Z,26.90
2018-05-25T16:01:33.664Z,26.90
2018-05-25T16:04:01.124Z,26.80
2018-05-25T16:06:28.572Z,26.80
2018-05-25T16:08:56.073Z,26.80
2018-05-25T16:11:23.520Z,26.90
2018-05-25T16:13:51.012Z,26.90
2018-05-25T16:16:18.485Z,26.90
2018-05-25T16:18:45.959Z,26.70
2018-05-25T16:21:13.520Z,26.70
2018-05-25T16:23:41.230Z,26.60
2018-05-25T16:26:09.550Z,26.50
2018-05-25T16:28:36.993Z,26.50
2018-05-25T16:31:05.229Z,26.40
2018-05-25T16:33:32.722Z,26.40
2018-05-25T16:36:00.170Z,26.40
2018-05-25T16:38:27.630Z,26.30
2018-05-25T16:40:55.098Z,26.30
2018-05-25T16:43:22.561Z,26.30
2018-05-25T16:45:50.017Z,26.40
2018-05-25T16:48:18.252Z,26.60
2018-05-25T16:50:45.941Z,26.50
2018-05-25T16:53:13.396Z,26.70
2018-05-25T16:55:40.864Z,26.70
2018-05-25T16:58:08.315Z,26.80
2018-05-25T17:00:36.384Z,26.90
2018-05-25T17:03:03.870Z,26.80
2018-05-25T17:05:31.420Z,26.80
2018-05-25T17:07:58.861Z,26.80
2018-05-25T17:10:26.304Z,26.80
2018-05-25T17:12:53.921Z,26.70
2018-05-25T17:15:21.482Z,26.60
2018-05-25T17:17:49.721Z,26.40
2018-05-25T17:20:17.184Z,26.30
2018-05-25T17:22:44.648Z,26.30
2018-05-25T17:25:12.102Z,26.20
2018-05-25T17:27:39.549Z,26.00
2018-05-25T17:30:07.772Z,25.70
2018-05-25T17:32:35.221Z,25.70
2018-05-25T17:35:02.692Z,25.60
2018-05-25T17:37:30.951Z,25.40
2018-05-25T17:39:58.415Z,25.40
2018-05-25T17:42:25.866Z,25.30
2018-05-25T17:44:53.401Z,25.30
2018-05-25T17:47:20.865Z,25.20
2018-05-25T17:49:48.313Z,25.10
2018-05-25T17:52:16.539Z,25.00
2018-05-25T17:54:43.985Z,25.00
2018-05-25T17:57:11.504Z,25.00
2018-05-25T17:59:38.973Z,25.00
2018-05-25T18:02:06.429Z,24.90
2018-05-25T18:04:33.889Z,24.90
2018-05-25T18:07:01.338Z,24.80
2018-05-25T18:09:28.855Z,24.80
2018-05-25T18:11:56.312Z,24.80
2018-05-25T18:14:23.791Z,24.70
2018-05-25T18:16:51.241Z,24.70
2018-05-25T18:19:18.704Z,24.70
2018-05-25T18:21:46.176Z,24.60
2018-05-25T18:24:13.673Z,24.60
2018-05-25T18:26:41.132Z,24.60
2018-05-25T18:29:08.617Z,24.60
2018-05-25T18:31:36.143Z,24.50
2018-05-25T18:34:03.649Z,24.40
2018-05-25T18:36:31.113Z,24.40
2018-05-25T18:38:58.589Z,24.40
2018-05-25T18:41:26.127Z,24.30
2018-05-25T18:43:53.644Z,24.20
2018-05-25T18:46:21.088Z,24.20
2018-05-25T18:48:48.549Z,24.10
2018-05-25T18:51:16.049Z,24.00
2018-05-25T18:53:43.508Z,24.00
2018-05-25T18:56:11.050Z,24.00
2018-05-25T18:58:38.621Z,23.90
2018-05-25T19:01:06.190Z,23.80
2018-05-25T19:03:33.651Z,23.80
2018-05-25T19:06:01.872Z,23.60
2018-05-25T19:08:29.336Z,23.50
2018-05-25T19:10:56.801Z,23.50
2018-05-25T19:13:24.277Z,23.40
2018-05-25T19:15:52.094Z,23.30
2018-05-25T19:18:19.532Z,23.20
2018-05-25T19:20:46.996Z,23.20
2018-05-25T19:23:14.446Z,23.10
2018-05-25T19:25:41.896Z,23.00
2018-05-25T19:28:09.377Z,22.90
2018-05-25T19:30:36.892Z,22.80
2018-05-25T19:33:04.464Z,22.80
2018-05-25T19:35:31.933Z,22.70
2018-05-25T19:37:59.392Z,22.60
2018-05-25T19:40:26.873Z,22.60
2018-05-25T19:42:54.332Z,22.50
2018-05-25T19:45:21.819Z,22.50
2018-05-25T19:47:49.280Z,22.40
2018-05-25T19:50:16.728Z,22.40
2018-05-25T19:52:44.179Z,22.30
2018-05-25T19:55:11.645Z,22.30
2018-05-25T19:57:39.890Z,22.10
2018-05-25T20:00:07.353Z,22.20
2018-05-25T20:02:34.800Z,22.10
2018-05-25T20:05:02.257Z,22.10
2018-05-25T20:07:29.724Z,22.00
2018-05-25T20:09:57.175Z,21.90
2018-05-25T20:12:25.428Z,21.80
2018-05-25T20:14:52.877Z,21.70
2018-05-25T20:17:20.325Z,21.80
2018-05-25T20:19:47.792Z,21.70
2018-05-25T20:22:15.257Z,21.60
2018-05-25T20:24:43.476Z,21.50
2018-05-25T20:27:10.925Z,21.50
2018-05-25T20:29:38.402Z,21.50
2018-05-25T20:32:05.900Z,21.40
2018-05-25T20:34:33.349Z,21.40
2018-05-25T20:37:00.837Z,21.40
2018-05-25T20:39:28.300Z,21.30
2018-05-25T20:41:55.772Z,21.30
2018-05-25T20:44:23.245Z,21.20
2018-05-25T20:46:50.813Z,21.20
2018-05-25T20:49:18.264Z,21.10
2018-05-25T20:51:45.753Z,21.10
2018-05-25T20:54:13.228Z,21.10
2018-05-25T20:56:40.693Z,21.10
2018-05-25T20:59:08.160Z,21.00
2018-05-25T21:01:35.632Z,21.00
2018-05-25T21:04:03.100Z,21.00
2018-05-25T21:06:30.578Z,21.00
2018-05-25T21:08:58.045Z,21.00
2018-05-25T21:11:25.509Z,21.00
2018-05-25T21:13:52.981Z,20.90
2018-05-25T21:16:20.445Z,20.90
2018-05-25T21:18:47.986Z,20.90
2018-05-25T21:21:15.493Z,20.80
2018-05-25T21:23:42.944Z,20.70
2018-05-25T21:26:10.499Z,20.70
2018-05-25T21:30:43.904Z,20.60
2018-05-25T21:33:11.409Z,20.60
2018-05-25T21:35:38.918Z,20.50
2018-05-25T21:38:06.476Z,20.50
2018-05-25T21:40:33.924Z,20.50
2018-05-25T21:43:01.485Z,20.50
2018-05-25T21:45:28.948Z,20.40
2018-05-25T21:47:56.400Z,20.40
2018-05-25T21:50:24.776Z,20.30
2018-05-25T21:52:52.328Z,20.30
2018-05-25T21:55:19.896Z,20.20
2018-05-25T21:57:47.356Z,20.20
2018-05-25T22:00:14.814Z,20.20
2018-05-25T22:02:42.309Z,20.10
2018-05-25T22:05:09.781Z,20.10
2018-05-25T22:07:37.240Z,20.10
2018-05-25T22:10:04.690Z,20.10
2018-05-25T22:12:32.192Z,20.10
2018-05-25T22:14:59.660Z,20.00
2018-05-25T22:17:27.113Z,20.00
2018-05-25T22:19:54.582Z,20.00
2018-05-25T22:22:22.032Z,20.00
2018-05-25T22:24:49.508Z,19.90
2018-05-25T22:27:17.009Z,19.90
2018-05-25T22:29:44.485Z,19.80
2018-05-25T22:32:11.954Z,19.80
2018-05-25T22:34:39.401Z,19.80
2018-05-25T22:37:07.052Z,19.80
2018-05-25T22:39:34.562Z,19.70
2018-05-25T22:42:01.533Z,19.70
2018-05-25T22:44:41.045Z,19.60
2018-05-25T22:47:20.473Z,19.60
2018-05-25T22:50:00.796Z,19.50
2018-05-25T22:52:33.416Z,19.50
2018-05-25T22:55:00.861Z,19.60
2018-05-25T22:57:28.324Z,19.60
2018-05-25T22:59:55.796Z,19.60
2018-05-25T23:02:23.253Z,19.60
2018-05-25T23:04:50.723Z,19.50
2018-05-25T23:07:18.169Z,19.50
2018-05-25T23:09:45.672Z,19.50
2018-05-25T23:12:13.121Z,19.50
2018-05-25T23:14:40.573Z,19.50
2018-05-25T23:17:08.040Z,19.40
2018-05-25T23:19:35.498Z,19.40
2018-05-25T23:22:03.720Z,19.20
2018-05-25T23:24:31.229Z,19.20
2018-05-25T23:26:58.696Z,19.20
2018-05-25T23:29:26.156Z,19.10
2018-05-25T23:31:53.629Z,19.00
2018-05-25T23:34:21.189Z,19.00
2018-05-25T23:36:48.645Z,18.90
2018-05-25T23:39:16.100Z,18.80
2018-05-25T23:41:43.552Z,18.80
2018-05-25T23:44:11.794Z,18.80
2018-05-25T23:46:39.324Z,18.80
2018-05-25T23:49:06.893Z,18.60
2018-05-25T23:51:34.363Z,18.60
2018-05-25T23:54:02.572Z,18.50
2018-05-25T23:56:30.064Z,18.50
2018-05-25T23:58:57.522Z,18.40
